createdAt,value
2017-05-06T00:00:07.082Z,0
2017-05-06T00:01:06.978Z,0
2017-05-06T00:02:00.933Z,0
2017-05-06T00:03:00.904Z,0
2017-05-06T00:03:55.803Z,0
2017-05-06T00:04:50.383Z,0
2017-05-06T00:05:43.863Z,0
2017-05-06T00:06:37.797Z,0
2017-05-06T00:07:32.800Z,0
2017-05-06T00:08:27.334Z,0
2017-05-06T00:09:21.817Z,0
2017-05-06T00:10:09.467Z,0
2017-05-06T00:11:03.308Z,0
2017-05-06T00:11:57.269Z,0
2017-05-06T00:12:51.197Z,0
2017-05-06T00:13:45.454Z,0
2017-05-06T00:14:39.187Z,0
2017-05-06T00:15:33.138Z,0
2017-05-06T00:16:27.099Z,0
2017-05-06T00:17:20.983Z,0
2017-05-06T00:18:16.212Z,0
2017-05-06T00:19:15.515Z,0
2017-05-06T00:20:15.424Z,0
2017-05-06T00:21:03.423Z,0
2017-05-06T00:21:57.433Z,0
2017-05-06T00:22:45.291Z,0
2017-05-06T00:23:45.632Z,0
2017-05-06T00:24:39.232Z,0
2017-05-06T00:25:33.203Z,0
2017-05-06T00:26:28.125Z,0
2017-05-06T00:27:22.650Z,0
2017-05-06T00:28:22.180Z,0
2017-05-06T00:29:16.202Z,0
2017-05-06T00:30:11.079Z,0
2017-05-06T00:30:58.601Z,0
2017-05-06T00:31:58.730Z,0
2017-05-06T00:32:46.529Z,0
2017-05-06T00:33:34.492Z,0
2017-05-06T00:34:28.670Z,0
2017-05-06T00:35:28.405Z,0
2017-05-06T00:36:23.337Z,0
2017-05-06T00:37:17.856Z,0
2017-05-06T00:38:11.372Z,0
2017-05-06T00:39:00.368Z,0
2017-05-06T00:39:54.890Z,0
2017-05-06T00:40:54.394Z,0
2017-05-06T00:41:49.350Z,0
2017-05-06T00:42:48.907Z,0
2017-05-06T00:43:37.870Z,0
2017-05-06T00:44:37.418Z,0
2017-05-06T00:45:31.303Z,0
2017-05-06T00:46:19.263Z,0
2017-05-06T00:47:08.192Z,0
2017-05-06T00:48:01.709Z,0
2017-05-06T00:49:03.067Z,0
2017-05-06T00:49:56.234Z,0
2017-05-06T00:50:56.201Z,0
2017-05-06T00:51:51.224Z,0
2017-05-06T00:52:45.654Z,0
2017-05-06T00:53:45.121Z,0
2017-05-06T00:54:39.104Z,0
2017-05-06T00:55:33.081Z,0
2017-05-06T00:56:22.036Z,0
2017-05-06T00:57:09.573Z,0
2017-05-06T00:58:03.538Z,0
2017-05-06T00:58:52.502Z,0
2017-05-06T00:59:51.968Z,0
2017-05-06T01:00:46.003Z,0
2017-05-06T01:01:39.886Z,0
2017-05-06T01:02:34.874Z,0
2017-05-06T01:03:35.388Z,0
2017-05-06T01:04:30.450Z,0
2017-05-06T01:05:24.479Z,0
2017-05-06T01:06:12.975Z,0
2017-05-06T01:07:06.488Z,0
2017-05-06T01:08:00.481Z,0
2017-05-06T01:08:54.402Z,0
2017-05-06T01:09:49.366Z,0
2017-05-06T01:10:36.888Z,0
2017-05-06T01:11:31.798Z,0
2017-05-06T01:12:31.815Z,0
2017-05-06T01:13:14.374Z,0
2017-05-06T01:14:13.754Z,0
2017-05-06T01:15:01.751Z,0
2017-05-06T01:15:56.729Z,0
2017-05-06T01:16:45.256Z,0
2017-05-06T01:17:38.703Z,0
2017-05-06T01:18:38.758Z,0
2017-05-06T01:19:33.695Z,0
2017-05-06T01:20:28.176Z,0
2017-05-06T01:21:21.800Z,0
2017-05-06T01:22:15.697Z,0
2017-05-06T01:23:10.668Z,0
2017-05-06T01:24:05.744Z,0
2017-05-06T01:24:59.702Z,0
2017-05-06T01:25:59.277Z,0
2017-05-06T01:26:54.200Z,0
2017-05-06T01:27:53.675Z,0
2017-05-06T01:28:53.599Z,0
2017-05-06T01:29:48.614Z,0
2017-05-06T01:30:43.125Z,0
2017-05-06T01:31:36.621Z,0
2017-05-06T01:32:32.110Z,0
2017-05-06T01:33:37.112Z,0
2017-05-06T01:34:32.060Z,0
2017-05-06T01:35:26.612Z,0
2017-05-06T01:36:26.110Z,0
2017-05-06T01:37:20.048Z,0
2017-05-06T01:38:20.094Z,0
2017-05-06T01:39:13.988Z,0
2017-05-06T01:40:08.927Z,0
2017-05-06T01:41:03.409Z,0
2017-05-06T01:41:57.945Z,0
2017-05-06T01:42:52.473Z,0
2017-05-06T01:43:47.353Z,0
2017-05-06T01:44:46.497Z,0
2017-05-06T01:45:40.423Z,0
2017-05-06T01:46:34.393Z,0
2017-05-06T01:47:23.387Z,0
2017-05-06T01:48:22.882Z,0
2017-05-06T01:49:11.919Z,0
2017-05-06T01:50:06.385Z,0
2017-05-06T01:51:11.901Z,0
2017-05-06T01:52:05.821Z,0
2017-05-06T01:53:00.790Z,0
2017-05-06T01:54:00.307Z,0
2017-05-06T01:54:54.314Z,0
2017-05-06T01:55:48.214Z,0
2017-05-06T01:56:36.221Z,0
2017-05-06T01:57:24.142Z,0
2017-05-06T01:58:24.075Z,0
2017-05-06T01:59:18.079Z,0
2017-05-06T02:00:18.008Z,0
2017-05-06T02:01:05.974Z,0
2017-05-06T02:02:07.112Z,0
2017-05-06T02:03:00.475Z,0
2017-05-06T02:04:00.420Z,0
2017-05-06T02:04:54.413Z,0
2017-05-06T02:05:48.349Z,0
2017-05-06T02:06:42.250Z,0
2017-05-06T02:07:42.179Z,0
2017-05-06T02:08:31.692Z,0
2017-05-06T02:09:24.680Z,0
2017-05-06T02:10:18.691Z,0
2017-05-06T02:11:18.786Z,0
2017-05-06T02:12:12.553Z,0
2017-05-06T02:13:06.538Z,0
2017-05-06T02:13:54.496Z,0
2017-05-06T02:14:49.438Z,0
2017-05-06T02:15:42.985Z,0
2017-05-06T02:16:37.909Z,0
2017-05-06T02:17:37.448Z,0
2017-05-06T02:18:31.410Z,0
2017-05-06T02:19:26.854Z,0
2017-05-06T02:20:25.883Z,0
2017-05-06T02:21:19.817Z,0
2017-05-06T02:22:13.765Z,0
2017-05-06T02:23:08.728Z,0
2017-05-06T02:24:14.291Z,0
2017-05-06T02:25:08.154Z,0
2017-05-06T02:26:03.187Z,0
2017-05-06T02:26:56.714Z,0
2017-05-06T02:27:56.675Z,0
2017-05-06T02:28:46.109Z,0
2017-05-06T02:29:40.094Z,0
2017-05-06T02:30:34.632Z,0
2017-05-06T02:31:29.179Z,0
2017-05-06T02:32:28.707Z,0
2017-05-06T02:33:17.680Z,0
2017-05-06T02:34:17.161Z,0
2017-05-06T02:35:11.073Z,0
2017-05-06T02:36:05.087Z,0
2017-05-06T02:36:59.009Z,0
2017-05-06T02:37:47.972Z,0
2017-05-06T02:38:36.887Z,0
2017-05-06T02:39:31.014Z,0
2017-05-06T02:40:30.982Z,0
2017-05-06T02:41:13.495Z,0
2017-05-06T02:42:01.088Z,0
2017-05-06T02:42:55.048Z,0
2017-05-06T02:43:49.293Z,0
2017-05-06T02:44:42.939Z,0
2017-05-06T02:45:37.914Z,0
2017-05-06T02:46:37.483Z,0
2017-05-06T02:47:26.443Z,0
2017-05-06T02:48:26.013Z,0
2017-05-06T02:49:19.797Z,0
2017-05-06T02:50:08.758Z,0
2017-05-06T02:51:03.274Z,0
2017-05-06T02:51:51.886Z,0
2017-05-06T02:52:45.330Z,0
2017-05-06T02:53:45.547Z,0
2017-05-06T02:54:34.278Z,0
2017-05-06T02:55:28.763Z,0
2017-05-06T02:56:28.319Z,0
2017-05-06T02:57:22.321Z,0
2017-05-06T02:58:17.173Z,0
2017-05-06T02:59:16.712Z,0
2017-05-06T03:00:11.766Z,0
2017-05-06T03:01:11.174Z,0
2017-05-06T03:02:05.147Z,0
2017-05-06T03:03:00.076Z,0
2017-05-06T03:03:59.569Z,0
2017-05-06T03:04:48.555Z,0
2017-05-06T03:05:48.082Z,0
2017-05-06T03:06:37.368Z,0
2017-05-06T03:07:30.538Z,0
2017-05-06T03:08:25.839Z,4
2017-05-06T03:09:20.078Z,4
2017-05-06T03:10:14.579Z,0
2017-05-06T03:11:14.084Z,0
2017-05-06T03:12:09.058Z,4
2017-05-06T03:13:08.579Z,4
2017-05-06T03:14:02.482Z,4
2017-05-06T03:14:56.481Z,4
2017-05-06T03:15:39.466Z,4
2017-05-06T03:16:34.317Z,8
2017-05-06T03:17:33.485Z,4
2017-05-06T03:18:33.378Z,8
2017-05-06T03:19:28.389Z,8
2017-05-06T03:20:27.928Z,8
2017-05-06T03:21:17.032Z,12
2017-05-06T03:22:16.417Z,12
2017-05-06T03:23:10.318Z,12
2017-05-06T03:24:04.279Z,16
2017-05-06T03:24:59.239Z,16
2017-05-06T03:25:53.741Z,20
2017-05-06T03:26:48.253Z,24
2017-05-06T03:27:37.186Z,28
2017-05-06T03:28:36.322Z,28
2017-05-06T03:29:25.335Z,36
2017-05-06T03:30:13.817Z,36
2017-05-06T03:31:01.338Z,40
2017-05-06T03:31:49.251Z,44
2017-05-06T03:32:37.354Z,52
2017-05-06T03:33:20.232Z,56
2017-05-06T03:34:07.749Z,64
2017-05-06T03:35:01.679Z,72
2017-05-06T03:35:50.664Z,80
2017-05-06T03:36:50.198Z,96
2017-05-06T03:37:39.175Z,100
2017-05-06T03:38:33.671Z,112
2017-05-06T03:39:22.320Z,124
2017-05-06T03:40:16.687Z,136
2017-05-06T03:41:10.199Z,148
2017-05-06T03:42:04.151Z,168
2017-05-06T03:42:58.109Z,180
2017-05-06T03:43:53.081Z,200
2017-05-06T03:44:52.589Z,220
2017-05-06T03:45:46.542Z,240
2017-05-06T03:46:40.462Z,260
2017-05-06T03:47:35.499Z,280
2017-05-06T03:48:23.546Z,308
2017-05-06T03:49:16.969Z,328
2017-05-06T03:50:16.974Z,352
2017-05-06T03:51:05.877Z,380
2017-05-06T03:51:59.364Z,416
2017-05-06T03:52:53.343Z,448
2017-05-06T03:53:47.301Z,484
2017-05-06T03:54:42.285Z,516
2017-05-06T03:55:36.799Z,552
2017-05-06T03:56:30.337Z,580
2017-05-06T03:57:25.365Z,592
2017-05-06T03:58:30.703Z,608
2017-05-06T03:59:24.693Z,628
2017-05-06T04:00:18.674Z,652
2017-05-06T04:01:13.660Z,692
2017-05-06T04:02:13.208Z,732
2017-05-06T04:03:13.170Z,768
2017-05-06T04:04:08.067Z,772
2017-05-06T04:05:07.541Z,820
2017-05-06T04:06:01.498Z,860
2017-05-06T04:06:56.562Z,852
2017-05-06T04:07:50.066Z,908
2017-05-06T04:08:44.013Z,960
2017-05-06T04:09:38.882Z,1004
2017-05-06T04:10:32.480Z,1052
2017-05-06T04:11:27.367Z,1136
2017-05-06T04:12:21.891Z,1272
2017-05-06T04:13:10.446Z,1272
2017-05-06T04:14:10.998Z,1240
2017-05-06T04:15:04.473Z,1316
2017-05-06T04:15:58.479Z,1364
2017-05-06T04:16:53.375Z,1476
2017-05-06T04:17:47.942Z,1448
2017-05-06T04:18:47.486Z,1436
2017-05-06T04:19:42.443Z,1540
2017-05-06T04:20:36.868Z,1564
2017-05-06T04:21:36.395Z,1644
2017-05-06T04:22:24.404Z,1748
2017-05-06T04:23:18.576Z,1796
2017-05-06T04:24:07.318Z,1884
2017-05-06T04:25:01.806Z,1924
2017-05-06T04:26:01.309Z,1956
2017-05-06T04:26:56.285Z,1984
2017-05-06T04:27:49.811Z,2112
2017-05-06T04:28:44.753Z,2004
2017-05-06T04:29:44.355Z,2080
2017-05-06T04:30:39.256Z,2284
2017-05-06T04:31:33.740Z,2360
2017-05-06T04:32:33.831Z,2392
2017-05-06T04:33:33.268Z,2660
2017-05-06T04:34:27.216Z,2684
2017-05-06T04:35:27.191Z,2736
2017-05-06T04:36:21.106Z,2880
2017-05-06T04:37:21.031Z,2968
2017-05-06T04:38:15.026Z,3016
2017-05-06T04:39:08.972Z,3092
2017-05-06T04:39:58.496Z,3092
2017-05-06T04:40:52.472Z,3124
2017-05-06T04:41:57.956Z,3200
2017-05-06T04:42:52.902Z,3656
2017-05-06T04:43:47.423Z,3448
2017-05-06T04:44:41.958Z,3712
2017-05-06T04:45:36.510Z,3448
2017-05-06T04:46:25.036Z,3964
2017-05-06T04:47:19.531Z,3928
2017-05-06T04:48:19.029Z,4076
2017-05-06T04:49:07.002Z,3932
2017-05-06T04:50:06.961Z,4232
2017-05-06T04:51:01.890Z,4344
2017-05-06T04:51:56.438Z,4376
2017-05-06T04:52:50.986Z,4552
2017-05-06T04:53:45.465Z,5112
2017-05-06T04:54:34.038Z,4524
2017-05-06T04:55:28.562Z,5220
2017-05-06T04:56:28.139Z,5564
2017-05-06T04:57:21.969Z,5248
2017-05-06T04:58:17.089Z,5504
2017-05-06T04:59:16.496Z,5372
2017-05-06T05:00:10.440Z,5876
2017-05-06T05:01:11.381Z,5892
2017-05-06T05:02:04.898Z,6032
2017-05-06T05:02:59.913Z,6320
2017-05-06T05:03:53.423Z,6144
2017-05-06T05:04:48.398Z,7112
2017-05-06T05:05:47.874Z,6388
2017-05-06T05:06:41.832Z,6160
2017-05-06T05:07:42.887Z,7312
2017-05-06T05:08:42.303Z,7212
2017-05-06T05:09:37.229Z,7548
2017-05-06T05:10:42.827Z,7772
2017-05-06T05:11:31.709Z,7832
2017-05-06T05:12:20.236Z,7032
2017-05-06T05:13:19.823Z,7312
2017-05-06T05:14:13.764Z,7312
2017-05-06T05:15:02.704Z,7308
2017-05-06T05:16:03.262Z,7040
2017-05-06T05:16:51.766Z,6800
2017-05-06T05:17:46.241Z,7432
2017-05-06T05:18:40.806Z,7644
2017-05-06T05:19:40.281Z,7448
2017-05-06T05:20:34.811Z,8280
2017-05-06T05:21:29.241Z,7576
2017-05-06T05:22:17.785Z,8064
2017-05-06T05:23:12.292Z,8060
2017-05-06T05:24:11.814Z,7272
2017-05-06T05:25:05.768Z,7280
2017-05-06T05:25:59.719Z,7508
2017-05-06T05:26:53.679Z,7100
2017-05-06T05:27:53.669Z,7384
2017-05-06T05:28:47.627Z,7232
2017-05-06T05:29:42.744Z,7568
2017-05-06T05:30:36.113Z,7804
2017-05-06T05:31:31.015Z,7692
2017-05-06T05:32:25.556Z,8084
2017-05-06T05:33:19.090Z,7652
2017-05-06T05:34:14.026Z,9144
2017-05-06T05:35:08.571Z,8260
2017-05-06T05:36:02.061Z,8460
2017-05-06T05:37:02.036Z,8868
2017-05-06T05:37:55.953Z,8940
2017-05-06T05:38:55.951Z,8756
2017-05-06T05:39:49.904Z,8548
2017-05-06T05:40:44.888Z,8352
2017-05-06T05:41:39.386Z,8212
2017-05-06T05:42:33.891Z,8896
2017-05-06T05:43:29.015Z,8868
2017-05-06T05:44:22.991Z,9460
2017-05-06T05:45:16.501Z,9128
2017-05-06T05:46:11.491Z,9436
2017-05-06T05:47:10.965Z,9448
2017-05-06T05:48:05.973Z,9320
2017-05-06T05:49:11.474Z,10004
2017-05-06T05:50:05.427Z,10340
2017-05-06T05:51:00.372Z,11252
2017-05-06T05:51:54.913Z,11584
2017-05-06T05:52:49.422Z,11848
2017-05-06T05:53:43.972Z,13012
2017-05-06T05:54:37.500Z,12816
2017-05-06T05:55:32.408Z,13416
2017-05-06T05:56:25.964Z,16768
2017-05-06T05:57:25.902Z,15404
2017-05-06T05:58:19.853Z,14744
2017-05-06T05:59:14.798Z,18176
2017-05-06T06:00:14.361Z,19520
2017-05-06T06:01:09.318Z,19264
2017-05-06T06:02:09.089Z,21920
2017-05-06T06:03:02.872Z,17024
2017-05-06T06:04:02.741Z,18528
2017-05-06T06:04:56.713Z,18336
2017-05-06T06:05:50.683Z,17632
2017-05-06T06:06:38.611Z,18432
2017-05-06T06:07:38.586Z,19008
2017-05-06T06:08:34.083Z,19872
2017-05-06T06:09:28.052Z,20800
2017-05-06T06:10:21.581Z,20640
2017-05-06T06:11:16.606Z,19712
2017-05-06T06:12:16.072Z,23360
2017-05-06T06:13:04.086Z,26528
2017-05-06T06:13:57.999Z,29024
2017-05-06T06:14:51.998Z,29856
2017-05-06T06:15:52.952Z,28096
2017-05-06T06:16:41.447Z,28288
2017-05-06T06:17:34.972Z,29088
2017-05-06T06:18:22.954Z,30464
2017-05-06T06:19:18.125Z,29280
2017-05-06T06:20:17.391Z,28256
2017-05-06T06:21:06.384Z,30048
2017-05-06T06:22:00.924Z,28864
2017-05-06T06:23:06.483Z,26400
2017-05-06T06:24:00.387Z,27872
2017-05-06T06:24:55.451Z,31552
2017-05-06T06:25:48.923Z,30880
2017-05-06T06:26:43.906Z,26304
2017-05-06T06:27:43.395Z,28768
2017-05-06T06:28:31.601Z,31296
2017-05-06T06:29:32.714Z,32672
2017-05-06T06:30:25.965Z,31424
2017-05-06T06:31:20.914Z,26816
2017-05-06T06:32:20.388Z,23488
2017-05-06T06:33:15.354Z,20800
2017-05-06T06:34:09.996Z,19776
2017-05-06T06:35:09.557Z,22016
2017-05-06T06:35:58.374Z,23808
2017-05-06T06:36:53.102Z,24672
2017-05-06T06:37:52.357Z,27680
2017-05-06T06:38:46.405Z,25696
2017-05-06T06:39:41.398Z,33216
2017-05-06T06:40:35.338Z,36608
2017-05-06T06:41:29.862Z,37216
2017-05-06T06:42:29.345Z,37664
2017-05-06T06:43:23.290Z,37472
2017-05-06T06:44:23.297Z,39744
2017-05-06T06:45:17.264Z,39808
2017-05-06T06:46:17.198Z,36160
2017-05-06T06:47:06.207Z,39392
2017-05-06T06:47:59.735Z,41184
2017-05-06T06:48:53.708Z,41024
2017-05-06T06:49:47.688Z,41056
2017-05-06T06:50:36.632Z,36352
2017-05-06T06:51:31.301Z,42112
2017-05-06T06:52:25.803Z,34240
2017-05-06T06:53:19.212Z,40992
2017-05-06T06:54:14.208Z,39488
2017-05-06T06:55:08.987Z,28608
2017-05-06T06:56:02.289Z,37408
2017-05-06T06:56:57.544Z,38656
2017-05-06T06:58:02.750Z,42016
2017-05-06T06:58:57.687Z,24384
2017-05-06T06:59:52.578Z,27648
2017-05-06T07:00:46.963Z,36320
2017-05-06T07:01:40.714Z,28448
2017-05-06T07:02:34.287Z,38944
2017-05-06T07:03:28.798Z,45056
2017-05-06T07:04:22.591Z,22816
2017-05-06T07:05:16.505Z,27872
2017-05-06T07:06:10.473Z,23008
2017-05-06T07:06:59.167Z,22752
2017-05-06T07:07:58.935Z,30304
2017-05-06T07:08:47.815Z,33696
2017-05-06T07:09:42.164Z,35072
2017-05-06T07:10:36.696Z,29216
2017-05-06T07:11:36.256Z,33568
2017-05-06T07:12:30.167Z,47072
2017-05-06T07:13:24.503Z,31168
2017-05-06T07:14:12.144Z,30624
2017-05-06T07:15:07.364Z,28256
2017-05-06T07:16:00.623Z,25952
2017-05-06T07:16:54.611Z,27904
2017-05-06T07:17:48.640Z,43232
2017-05-06T07:18:43.599Z,56896
2017-05-06T07:19:43.125Z,52736
2017-05-06T07:20:31.100Z,48032
2017-05-06T07:21:25.044Z,61632
2017-05-06T07:22:18.985Z,59008
2017-05-06T07:23:08.003Z,46464
2017-05-06T07:24:01.568Z,21824
2017-05-06T07:25:02.595Z,21568
2017-05-06T07:25:50.034Z,21536
2017-05-06T07:26:49.974Z,35936
2017-05-06T07:27:43.964Z,30624
2017-05-06T07:28:33.451Z,39328
2017-05-06T07:29:21.566Z,59264
2017-05-06T07:30:21.026Z,31648
2017-05-06T07:31:15.959Z,56128
2017-05-06T07:32:04.587Z,60064
2017-05-06T07:32:59.041Z,60416
2017-05-06T07:33:52.573Z,60288
2017-05-06T07:34:46.860Z,56608
2017-05-06T07:35:40.550Z,61888
2017-05-06T07:36:34.777Z,60640
2017-05-06T07:37:29.487Z,55232
2017-05-06T07:38:29.558Z,32736
2017-05-06T07:39:22.969Z,58240
2017-05-06T07:40:11.958Z,62432
2017-05-06T07:41:05.541Z,25440
2017-05-06T07:41:59.421Z,48256
2017-05-06T07:42:53.412Z,29248
2017-05-06T07:43:48.429Z,37376
2017-05-06T07:44:47.928Z,22368
2017-05-06T07:45:41.878Z,29888
2017-05-06T07:46:35.895Z,52800
2017-05-06T07:47:30.823Z,26368
2017-05-06T07:48:31.056Z,26784
2017-05-06T07:49:24.334Z,30240
2017-05-06T07:50:18.328Z,31520
2017-05-06T07:51:13.286Z,29664
2017-05-06T07:52:13.031Z,34848
2017-05-06T07:53:06.737Z,72192
2017-05-06T07:54:07.786Z,74016
2017-05-06T07:55:01.281Z,73472
2017-05-06T07:56:01.286Z,70112
2017-05-06T07:56:56.187Z,71552
2017-05-06T07:57:50.877Z,58592
2017-05-06T07:58:45.301Z,35616
2017-05-06T07:59:39.829Z,69472
2017-05-06T08:00:39.388Z,62048
2017-05-06T08:01:28.332Z,71360
2017-05-06T08:02:21.919Z,69792
2017-05-06T08:03:21.892Z,34016
2017-05-06T08:04:16.834Z,31104
2017-05-06T08:05:16.358Z,63040
2017-05-06T08:06:10.353Z,28640
2017-05-06T08:07:11.763Z,36864
2017-05-06T08:08:04.806Z,41504
2017-05-06T08:08:52.806Z,41696
2017-05-06T08:09:40.800Z,29088
2017-05-06T08:10:40.735Z,70656
2017-05-06T08:11:28.717Z,65344
2017-05-06T08:12:28.976Z,28864
2017-05-06T08:13:17.704Z,66272
2017-05-06T08:14:12.341Z,63840
2017-05-06T08:15:05.787Z,51456
2017-05-06T08:16:05.725Z,41280
2017-05-06T08:16:59.679Z,40832
2017-05-06T08:17:59.695Z,41952
2017-05-06T08:18:53.660Z,41408
2017-05-06T08:19:53.656Z,22752
2017-05-06T08:20:42.597Z,44224
2017-05-06T08:21:36.203Z,55776
2017-05-06T08:22:19.476Z,28384
2017-05-06T08:23:12.657Z,25728
2017-05-06T08:24:07.781Z,75168
2017-05-06T08:25:07.198Z,77280
2017-05-06T08:26:02.133Z,73504
2017-05-06T08:27:07.676Z,29216
2017-05-06T08:28:02.621Z,73984
2017-05-06T08:28:57.225Z,48608
2017-05-06T08:29:51.773Z,74240
2017-05-06T08:30:45.543Z,22656
2017-05-06T08:31:34.217Z,38720
2017-05-06T08:32:27.726Z,72224
2017-05-06T08:33:16.667Z,68128
2017-05-06T08:34:11.268Z,62080
2017-05-06T08:35:10.792Z,68320
2017-05-06T08:35:59.776Z,71584
2017-05-06T08:36:54.331Z,72160
2017-05-06T08:37:48.812Z,70304
2017-05-06T08:38:43.351Z,64864
2017-05-06T08:39:42.879Z,60256
2017-05-06T08:40:31.908Z,59296
2017-05-06T08:41:26.469Z,62400
2017-05-06T08:42:25.970Z,68416
2017-05-06T08:43:15.269Z,70432
2017-05-06T08:44:08.464Z,58400
2017-05-06T08:45:03.484Z,64672
2017-05-06T08:46:03.333Z,36896
2017-05-06T08:46:58.350Z,64192
2017-05-06T08:47:57.487Z,64704
2017-05-06T08:48:51.550Z,39808
2017-05-06T08:49:45.529Z,48832
2017-05-06T08:50:39.999Z,68512
2017-05-06T08:51:28.412Z,64960
2017-05-06T08:52:22.409Z,60160
2017-05-06T08:53:21.916Z,29888
2017-05-06T08:54:16.180Z,36736
2017-05-06T08:55:10.120Z,32928
2017-05-06T08:56:04.841Z,45504
2017-05-06T08:56:59.374Z,40896
2017-05-06T08:57:58.942Z,68768
2017-05-06T08:58:41.967Z,76000
2017-05-06T08:59:41.473Z,24416
2017-05-06T09:00:41.445Z,43168
2017-05-06T09:01:41.399Z,29824
2017-05-06T09:02:35.367Z,76704
2017-05-06T09:03:24.367Z,60032
2017-05-06T09:04:17.942Z,33024
2017-05-06T09:05:12.879Z,37824
2017-05-06T09:06:07.885Z,77184
2017-05-06T09:07:13.178Z,74688
2017-05-06T09:08:07.174Z,70944
2017-05-06T09:09:00.915Z,66880
2017-05-06T09:09:55.323Z,66400
2017-05-06T09:10:55.321Z,70656
2017-05-06T09:11:49.205Z,68800
2017-05-06T09:12:42.989Z,64000
2017-05-06T09:13:37.945Z,60864
2017-05-06T09:14:37.877Z,60224
2017-05-06T09:15:26.749Z,58560
2017-05-06T09:16:19.782Z,59008
2017-05-06T09:17:14.730Z,60032
2017-05-06T09:18:14.941Z,66400
2017-05-06T09:19:08.822Z,62336
2017-05-06T09:20:02.836Z,69120
2017-05-06T09:20:57.212Z,70656
2017-05-06T09:21:51.961Z,68096
2017-05-06T09:22:39.622Z,72352
2017-05-06T09:23:34.834Z,72448
2017-05-06T09:24:28.339Z,78016
2017-05-06T09:25:22.265Z,77024
2017-05-06T09:26:16.271Z,81440
2017-05-06T09:27:11.257Z,79840
2017-05-06T09:28:05.797Z,77376
2017-05-06T09:28:59.344Z,80864
2017-05-06T09:29:48.313Z,77792
2017-05-06T09:30:47.859Z,78208
2017-05-06T09:31:36.852Z,74656
2017-05-06T09:32:31.368Z,72256
2017-05-06T09:33:19.932Z,70848
2017-05-06T09:34:13.440Z,68576
2017-05-06T09:35:13.478Z,67360
2017-05-06T09:36:08.456Z,65792
2017-05-06T09:37:02.973Z,66304
2017-05-06T09:38:02.498Z,68928
2017-05-06T09:38:56.506Z,71104
2017-05-06T09:39:50.435Z,76352
2017-05-06T09:40:39.463Z,79776
2017-05-06T09:41:34.049Z,78784
2017-05-06T09:42:28.493Z,84544
2017-05-06T09:43:23.070Z,81504
2017-05-06T09:44:16.579Z,82208
2017-05-06T09:45:10.599Z,81216
2017-05-06T09:46:04.573Z,80000
2017-05-06T09:46:53.591Z,77344
2017-05-06T09:47:47.131Z,75904
2017-05-06T09:48:47.049Z,69152
2017-05-06T09:49:41.026Z,70656
2017-05-06T09:50:36.060Z,70880
2017-05-06T09:51:29.571Z,18464
2017-05-06T09:52:23.645Z,82368
2017-05-06T09:53:11.541Z,85920
2017-05-06T09:53:59.553Z,87808
2017-05-06T09:54:48.554Z,89632
2017-05-06T09:55:43.043Z,84544
2017-05-06T09:56:42.568Z,82304
2017-05-06T09:57:25.591Z,79104
2017-05-06T09:58:20.114Z,76352
2017-05-06T09:59:13.627Z,72512
2017-05-06T09:59:56.681Z,70240
2017-05-06T10:00:51.199Z,74304
2017-05-06T10:01:44.756Z,76704
2017-05-06T10:02:44.738Z,77376
2017-05-06T10:03:38.742Z,82208
2017-05-06T10:04:33.741Z,87200
2017-05-06T10:05:27.263Z,91296
2017-05-06T10:06:22.248Z,77856
2017-05-06T10:07:16.822Z,23040
2017-05-06T10:08:10.368Z,77376
2017-05-06T10:09:04.317Z,83936
2017-05-06T10:09:53.290Z,92096
2017-05-06T10:10:52.836Z,89696
2017-05-06T10:11:47.834Z,88768
2017-05-06T10:12:36.389Z,90080
2017-05-06T10:13:29.908Z,88096
2017-05-06T10:14:24.903Z,91936
2017-05-06T10:15:13.480Z,93248
2017-05-06T10:16:07.013Z,90528
2017-05-06T10:17:06.977Z,90016
2017-05-06T10:18:00.960Z,89600
2017-05-06T10:18:55.894Z,78112
2017-05-06T10:19:50.483Z,90848
2017-05-06T10:20:45.085Z,70592
2017-05-06T10:21:39.553Z,88640
2017-05-06T10:22:34.090Z,87872
2017-05-06T10:23:27.683Z,90528
2017-05-06T10:24:21.712Z,37312
2017-05-06T10:25:15.631Z,96768
2017-05-06T10:26:15.603Z,43840
2017-05-06T10:27:04.570Z,83968
2017-05-06T10:27:59.060Z,81568
2017-05-06T10:28:58.658Z,81632
2017-05-06T10:29:47.618Z,78592
2017-05-06T10:30:41.202Z,65792
2017-05-06T10:31:35.135Z,16628
2017-05-06T10:32:18.137Z,17424
2017-05-06T10:33:17.692Z,88672
2017-05-06T10:34:11.635Z,93024
2017-05-06T10:35:12.665Z,91392
2017-05-06T10:36:12.192Z,86752
2017-05-06T10:37:12.199Z,86016
2017-05-06T10:38:06.112Z,81984
2017-05-06T10:39:01.101Z,81856
2017-05-06T10:40:00.649Z,80768
2017-05-06T10:40:55.716Z,81920
2017-05-06T10:41:49.207Z,33760
2017-05-06T10:42:43.139Z,24032
2017-05-06T10:43:37.336Z,27872
2017-05-06T10:44:26.100Z,40288
2017-05-06T10:45:14.699Z,28096
2017-05-06T10:46:09.184Z,33632
2017-05-06T10:47:08.753Z,85408
2017-05-06T10:48:03.662Z,33280
2017-05-06T10:49:03.258Z,46368
2017-05-06T10:49:57.133Z,96416
2017-05-06T10:50:51.228Z,92512
2017-05-06T10:51:45.198Z,91008
2017-05-06T10:52:45.111Z,88576
2017-05-06T10:53:39.159Z,92320
2017-05-06T10:54:27.134Z,92320
2017-05-06T10:55:16.107Z,94144
2017-05-06T10:56:21.659Z,100672
2017-05-06T10:57:15.683Z,34848
2017-05-06T10:57:58.592Z,94496
2017-05-06T10:58:47.147Z,33312
2017-05-06T10:59:40.691Z,104480
2017-05-06T11:00:34.661Z,102528
2017-05-06T11:01:28.675Z,102624
2017-05-06T11:02:28.665Z,104672
2017-05-06T11:03:22.591Z,75520
2017-05-06T11:04:16.616Z,101472
2017-05-06T11:05:05.588Z,99392
2017-05-06T11:06:05.115Z,90848
2017-05-06T11:06:59.140Z,84416
2017-05-06T11:08:00.086Z,77664
2017-05-06T11:08:53.613Z,78560
2017-05-06T11:09:53.633Z,85344
2017-05-06T11:10:47.595Z,95552
2017-05-06T11:11:48.567Z,107904
2017-05-06T11:12:42.067Z,112992
2017-05-06T11:13:36.289Z,109984
2017-05-06T11:14:31.094Z,108608
2017-05-06T11:15:25.640Z,88320
2017-05-06T11:16:20.205Z,38080
2017-05-06T11:17:14.685Z,38336
2017-05-06T11:18:08.331Z,89856
2017-05-06T11:19:08.304Z,85728
2017-05-06T11:20:03.227Z,85792
2017-05-06T11:20:57.790Z,91712
2017-05-06T11:21:57.319Z,93152
2017-05-06T11:22:51.285Z,97216
2017-05-06T11:23:46.199Z,100224
2017-05-06T11:24:45.817Z,36864
2017-05-06T11:25:39.817Z,99776
2017-05-06T11:26:34.764Z,101792
2017-05-06T11:27:34.342Z,95904
2017-05-06T11:28:28.350Z,94016
2017-05-06T11:29:22.304Z,93824
2017-05-06T11:30:17.283Z,95872
2017-05-06T11:31:17.742Z,99200
2017-05-06T11:32:17.288Z,38048
2017-05-06T11:33:05.337Z,77280
2017-05-06T11:33:59.258Z,25088
2017-05-06T11:34:53.242Z,33920
2017-05-06T11:35:42.269Z,33568
2017-05-06T11:36:35.874Z,40800
2017-05-06T11:37:29.847Z,97952
2017-05-06T11:38:23.853Z,97888
2017-05-06T11:39:18.797Z,38752
2017-05-06T11:40:13.350Z,30720
2017-05-06T11:41:06.915Z,35424
2017-05-06T11:42:01.859Z,48288
2017-05-06T11:43:01.404Z,70528
2017-05-06T11:43:50.374Z,28800
2017-05-06T11:44:49.924Z,26816
2017-05-06T11:45:37.900Z,25888
2017-05-06T11:46:37.930Z,92928
2017-05-06T11:47:25.883Z,96672
2017-05-06T11:48:20.815Z,98176
2017-05-06T11:49:14.410Z,97056
2017-05-06T11:50:02.360Z,101280
2017-05-06T11:50:50.371Z,99200
2017-05-06T11:51:50.276Z,50688
2017-05-06T11:52:45.305Z,36544
2017-05-06T11:53:44.892Z,98304
2017-05-06T11:54:39.896Z,75232
2017-05-06T11:55:34.370Z,53600
2017-05-06T11:56:28.924Z,105792
2017-05-06T11:57:28.481Z,106368
2017-05-06T11:58:17.442Z,104576
2017-05-06T11:59:16.993Z,55136
2017-05-06T12:00:10.991Z,42048
2017-05-06T12:01:04.951Z,97024
2017-05-06T12:01:53.894Z,95584
2017-05-06T12:02:42.613Z,41856
2017-05-06T12:03:37.107Z,35072
2017-05-06T12:04:36.563Z,100096
2017-05-06T12:05:25.511Z,33248
2017-05-06T12:06:25.063Z,30464
2017-05-06T12:07:19.032Z,31232
2017-05-06T12:08:12.991Z,35104
2017-05-06T12:09:08.014Z,70144
2017-05-06T12:10:02.556Z,106272
2017-05-06T12:10:57.067Z,44448
2017-05-06T12:11:51.694Z,37600
2017-05-06T12:12:45.236Z,47776
2017-05-06T12:13:40.239Z,81632
2017-05-06T12:14:33.690Z,79680
2017-05-06T12:15:16.686Z,76512